Terminal Aerodrome Forecast
Issued by NWS Tuscon, AZ

Home | Current Version | Previous Version | Text Only | Print | Product List | Glossary On
Versions: 1 2 3 4 5 6 7 8 9 10 11 12 13 14 15 16 17
000
FTUS45 KTWC 310520
TAFTUS
TAF
KTUS 310520Z 3106/0106 14008KT P6SM SCT120 BKN200
     FM311800 VRB03KT P6SM SCT090 SCT200
     FM312300 26007KT P6SM VCSH SCT090 BKN200
     FM010400 19005KT P6SM SCT110 BKN200=

USA.gov is the U.S. government's official web portal to all federal, state and local government web resources and services.